Time;durP1;ratioP1;P1;durP2;ratioP2;P2;SDS_P1;SDS_P2;PMS_P1;PMS_P2;Temp;Humidity;BMP_temperature;BMP_pressure;BME280_temperature;BME280_humidity;BME280_pressure;Samples;Min_cycle;Max_cycle;Signal;HPM_P1;HPM_P2
2021/12/30 00:02:01;;;;;;;20.23;13.88;;;;;;;5.51;44.67;99768.39;1746606;80;21112;-61
2021/12/30 00:04:28;;;;;;;17.65;14.63;;;;;;;5.50;44.67;99770.66;1751556;80;21046;-61
2021/12/30 00:06:55;;;;;;;18.48;13.88;;;;;;;5.51;44.69;99773.66;1754349;79;21521;-60
2021/12/30 00:09:22;;;;;;;20.00;14.80;;;;;;;5.50;44.70;99769.34;1772700;80;21011;-62
2021/12/30 00:11:48;;;;;;;17.87;14.28;;;;;;;5.51;44.69;99769.70;1772442;80;21003;-61
2021/12/30 00:14:16;;;;;;;19.23;14.70;;;;;;;5.51;44.69;99772.34;1780315;79;21038;-61
2021/12/30 00:16:42;;;;;;;17.70;14.43;;;;;;;5.52;44.70;99776.62;1788489;79;21046;-62
2021/12/30 00:19:12;;;;;;;21.02;15.48;;;;;;;5.51;44.69;99781.56;1754188;79;21081;-61
2021/12/30 00:21:39;;;;;;;19.73;15.15;;;;;;;5.52;44.70;99789.80;1776683;79;21014;-61
2021/12/30 00:24:06;;;;;;;22.37;16.50;;;;;;;5.52;44.71;99793.75;1746437;80;21629;-61
2021/12/30 00:26:32;;;;;;;18.57;13.98;;;;;;;5.52;44.71;99791.12;1776330;79;21140;-62
2021/12/30 00:28:59;;;;;;;20.10;15.00;;;;;;;5.52;44.71;99787.16;1805924;79;21500;-61
2021/12/30 00:31:25;;;;;;;19.77;14.85;;;;;;;5.53;44.70;99791.48;1828605;77;21022;-61
2021/12/30 00:33:52;;;;;;;19.80;16.00;;;;;;;5.52;44.74;99788.48;1827744;77;21041;-61
2021/12/30 00:36:18;;;;;;;20.80;15.85;;;;;;;5.53;44.71;99786.70;1823610;77;21024;-61
2021/12/30 00:38:45;;;;;;;20.72;15.70;;;;;;;5.51;44.71;99785.02;1827248;77;21127;-60
2021/12/30 00:41:12;;;;;;;21.68;15.93;;;;;;;5.53;44.74;99784.07;1814629;77;20966;-61
2021/12/30 00:43:39;;;;;;;20.75;15.10;;;;;;;5.53;44.72;99786.70;1829776;77;21038;-61
2021/12/30 00:46:07;;;;;;;19.65;15.13;;;;;;;5.53;44.75;99780.12;1815113;77;21033;-61
2021/12/30 00:48:33;;;;;;;19.20;15.25;;;;;;;5.53;44.72;99778.31;1821719;77;22187;-61
2021/12/30 00:51:00;;;;;;;22.63;16.73;;;;;;;5.53;44.75;99779.63;1819456;77;21124;-61
2021/12/30 00:53:27;;;;;;;20.75;16.02;;;;;;;5.53;44.74;99777.48;1824862;77;21080;-62
2021/12/30 00:55:54;;;;;;;21.12;16.32;;;;;;;5.53;44.74;99773.04;1818957;77;21551;-61
2021/12/30 00:58:20;;;;;;;21.07;15.80;;;;;;;5.53;44.74;99770.41;1825121;77;21009;-61
2021/12/30 01:00:47;;;;;;;21.73;15.98;;;;;;;5.54;44.74;99769.91;1818476;77;21010;-61
2021/12/30 01:03:14;;;;;;;23.75;15.88;;;;;;;5.53;44.74;99769.08;1822701;77;23241;-61
2021/12/30 01:05:41;;;;;;;19.45;15.32;;;;;;;5.54;44.74;99771.23;1823169;77;21300;-60
2021/12/30 01:08:08;;;;;;;24.70;17.27;;;;;;;5.54;44.74;99768.59;1827753;77;21021;-60
2021/12/30 01:10:34;;;;;;;21.93;16.82;;;;;;;5.54;44.74;99769.42;1816693;77;21037;-61
2021/12/30 01:13:05;;;;;;;21.57;16.42;;;;;;;5.53;44.75;99769.08;1820578;77;21068;-61
2021/12/30 01:15:46;;;;;;;21.30;16.50;;;;;;;5.53;44.76;99774.36;1773436;80;21235;-61
2021/12/30 01:18:28;;;;;;;21.95;16.45;;;;;;;5.55;44.75;99778.18;1780159;79;21049;-61
2021/12/30 01:20:50;;;;;;;22.00;16.17;;;;;;;5.54;44.75;99780.45;1776850;79;21002;-65
2021/12/30 01:23:17;;;;;;;21.65;16.85;;;;;;;5.54;44.75;99777.81;1774840;80;21039;-61
2021/12/30 01:25:43;;;;;;;22.22;16.82;;;;;;;5.53;44.77;99780.95;1753376;80;21065;-60
2021/12/30 01:28:09;;;;;;;21.73;17.05;;;;;;;5.54;44.78;99776.50;1754256;80;21097;-60
2021/12/30 01:30:36;;;;;;;22.42;16.85;;;;;;;5.54;44.78;99776.50;1757664;80;21116;-60
2021/12/30 01:33:03;;;;;;;20.82;16.62;;;;;;;5.54;44.78;99780.45;1746966;80;21609;-61
2021/12/30 01:35:30;;;;;;;22.45;17.35;;;;;;;5.54;44.78;99777.33;1768444;80;21104;-61
2021/12/30 01:38:00;;;;;;;21.55;16.77;;;;;;;5.53;44.78;99776.98;1775706;80;21006;-61
2021/12/30 01:40:27;;;;;;;22.70;17.37;;;;;;;5.54;44.79;99779.13;1774662;80;21212;-59
2021/12/30 01:42:54;;;;;;;24.47;17.52;;;;;;;5.54;44.78;99776.00;1808349;79;21034;-61
2021/12/30 01:45:22;;;;;;;22.45;16.27;;;;;;;5.54;44.81;99769.91;1836227;77;21057;-61
2021/12/30 01:47:53;;;;;;;25.57;18.20;;;;;;;5.54;44.77;99773.37;1824447;77;21362;-60
2021/12/30 01:50:21;;;;;;;22.00;17.27;;;;;;;5.54;44.81;99768.10;1822970;77;20990;-60
2021/12/30 01:52:47;;;;;;;22.95;17.20;;;;;;;5.54;44.80;99770.73;1847677;77;21112;-61
2021/12/30 01:55:16;;;;;;;22.27;17.65;;;;;;;5.54;44.82;99772.55;1844892;77;21004;-62
2021/12/30 01:57:43;;;;;;;21.70;16.87;;;;;;;5.54;44.79;99777.81;1845258;77;21065;-63
2021/12/30 02:00:13;;;;;;;21.87;16.45;;;;;;;5.54;44.81;99779.95;1834986;77;22345;-61
2021/12/30 02:02:40;;;;;;;21.30;17.42;;;;;;;5.54;44.83;99780.45;1814876;78;21071;-62
2021/12/30 02:05:08;;;;;;;23.00;16.70;;;;;;;5.54;44.81;99783.91;1844214;77;21127;-60
2021/12/30 02:07:36;;;;;;;22.98;18.02;;;;;;;5.54;44.83;99788.36;1845211;77;21549;-61
2021/12/30 02:10:05;;;;;;;23.45;18.10;;;;;;;5.54;44.82;99791.81;1817185;77;20976;-60
2021/12/30 02:12:34;;;;;;;24.55;18.00;;;;;;;5.54;44.82;99790.50;1839999;77;21045;-60
2021/12/30 02:15:03;;;;;;;23.30;17.75;;;;;;;5.54;44.82;99794.45;1843688;77;21578;-60
2021/12/30 02:17:31;;;;;;;21.77;16.70;;;;;;;5.55;44.82;99797.45;1838205;78;21135;-60
2021/12/30 02:20:05;;;;;;;22.90;17.23;;;;;;;5.55;44.81;99793.99;1835230;77;21055;-59
2021/12/30 02:22:35;;;;;;;23.60;18.42;;;;;;;5.55;44.82;99799.27;1847544;77;21021;-61
2021/12/30 02:25:04;;;;;;;25.27;17.98;;;;;;;5.55;44.82;99801.41;1845304;77;21027;-61
2021/12/30 02:27:31;;;;;;;23.92;17.52;;;;;;;5.55;44.83;99805.85;1847461;77;21013;-60
2021/12/30 02:29:59;;;;;;;23.87;18.37;;;;;;;5.55;44.84;99798.77;1846369;77;21132;-61
2021/12/30 02:32:27;;;;;;;24.02;18.15;;;;;;;5.56;44.82;99801.73;1788067;79;21065;-60
2021/12/30 02:34:53;;;;;;;22.67;17.62;;;;;;;5.55;44.82;99797.45;1803312;79;21050;-61
2021/12/30 02:37:20;;;;;;;23.60;17.87;;;;;;;5.55;44.83;99805.36;1775639;80;21022;-60
2021/12/30 02:39:53;;;;;;;23.27;17.48;;;;;;;5.55;44.83;99801.41;1790141;79;21009;-59
2021/12/30 02:42:24;;;;;;;21.82;16.45;;;;;;;5.54;44.84;99803.67;1778275;79;21761;-62
2021/12/30 02:44:52;;;;;;;23.02;17.70;;;;;;;5.55;44.83;99801.41;1782413;80;21494;-62
2021/12/30 02:47:18;;;;;;;25.43;17.65;;;;;;;5.55;44.84;99798.77;1764689;80;21033;-61
2021/12/30 02:49:45;;;;;;;23.35;17.67;;;;;;;5.54;44.84;99793.14;1763833;80;21537;-60
2021/12/30 02:52:11;;;;;;;24.00;17.17;;;;;;;5.55;44.85;99796.63;1780093;79;21050;-62
2021/12/30 02:54:41;;;;;;;22.85;17.25;;;;;;;5.54;44.84;99799.72;1762295;80;21883;-61
2021/12/30 02:57:08;;;;;;;21.17;16.62;;;;;;;5.54;44.88;99802.85;1775595;80;21521;-60
2021/12/30 02:59:35;;;;;;;22.27;17.35;;;;;;;5.54;44.85;99807.62;1773022;79;21068;-59
2021/12/30 03:02:04;;;;;;;20.62;16.02;;;;;;;5.54;44.88;99808.95;1796962;78;20972;-62
2021/12/30 03:04:32;;;;;;;22.85;16.40;;;;;;;5.55;44.84;99812.44;1770405;80;21057;-61
2021/12/30 03:06:59;;;;;;;21.93;16.65;;;;;;;5.54;44.86;99815.53;1771614;80;21106;-60
2021/12/30 03:09:26;;;;;;;23.10;17.15;;;;;;;5.54;44.86;99818.66;1759225;80;21163;-61
2021/12/30 03:11:52;;;;;;;21.73;16.32;;;;;;;5.54;44.88;99823.94;1751356;80;21549;-61
2021/12/30 03:14:18;;;;;;;22.60;17.12;;;;;;;5.54;44.88;99823.94;1776533;80;21368;-62
2021/12/30 03:16:45;;;;;;;22.52;17.77;;;;;;;5.55;44.86;99833.52;1777902;80;21050;-62
2021/12/30 03:19:13;;;;;;;22.75;17.52;;;;;;;5.55;44.88;99836.98;1771440;80;21529;-61
2021/12/30 03:21:40;;;;;;;22.25;16.45;;;;;;;5.55;44.88;99844.89;1845912;77;20970;-61
2021/12/30 03:24:06;;;;;;;20.60;16.60;;;;;;;5.55;44.88;99848.84;1846010;77;21092;-62
2021/12/30 03:26:35;;;;;;;22.00;16.75;;;;;;;5.57;44.87;99851.34;1847521;77;21557;-61
2021/12/30 03:29:03;;;;;;;24.65;17.12;;;;;;;5.55;44.85;99855.42;1833878;77;21022;-61
2021/12/30 03:31:29;;;;;;;21.73;16.97;;;;;;;5.55;44.86;99849.33;1841027;77;21101;-61
2021/12/30 03:33:56;;;;;;;23.83;17.15;;;;;;;5.56;44.87;99858.40;1832399;77;21057;-60
2021/12/30 03:36:22;;;;;;;22.48;17.12;;;;;;;5.55;44.88;99852.80;1839214;77;21010;-60
2021/12/30 03:38:53;;;;;;;22.85;17.60;;;;;;;5.56;44.87;99854.94;1843214;77;21022;-61
2021/12/30 03:41:22;;;;;;;23.15;17.27;;;;;;;5.56;44.87;99851.81;1763371;79;21015;-61
2021/12/30 03:43:49;;;;;;;22.40;16.90;;;;;;;5.56;44.87;99858.40;1764127;80;21092;-60
2021/12/30 03:46:16;;;;;;;23.87;18.05;;;;;;;5.56;44.88;99853.12;1775789;80;21427;-61
2021/12/30 03:48:44;;;;;;;25.27;18.48;;;;;;;5.56;44.85;99857.08;1800669;79;20991;-63
2021/12/30 03:51:24;;;;;;;23.10;17.40;;;;;;;5.56;44.88;99853.62;1789288;79;21046;-60
2021/12/30 03:53:55;;;;;;;22.80;17.73;;;;;;;5.56;44.89;99858.40;1787744;79;21046;-61
2021/12/30 03:56:25;;;;;;;24.98;17.17;;;;;;;5.56;44.85;99857.58;1806821;79;21107;-62
2021/12/30 03:58:52;;;;;;;22.77;18.02;;;;;;;5.56;44.88;99861.03;1798657;79;21441;-60
2021/12/30 04:01:21;;;;;;;24.98;17.52;;;;;;;5.57;44.89;99867.98;1764749;81;21163;-61
2021/12/30 04:03:48;;;;;;;21.30;16.85;;;;;;;5.56;44.88;99879.97;1791914;79;21005;-60
2021/12/30 04:06:15;;;;;;;23.45;16.95;;;;;;;5.56;44.88;99876.84;1774839;79;21042;-62
2021/12/30 04:08:42;;;;;;;24.60;17.87;;;;;;;5.56;44.88;99876.02;1767588;79;21089;-61
2021/12/30 04:11:09;;;;;;;25.77;18.35;;;;;;;5.56;44.89;99875.53;1764770;81;21665;-62
2021/12/30 04:13:35;;;;;;;25.15;18.42;;;;;;;5.57;44.90;99881.66;1789914;80;21049;-61
2021/12/30 04:16:02;;;;;;;25.60;17.95;;;;;;;5.56;44.90;99872.89;1785643;80;21553;-62
2021/12/30 04:18:31;;;;;;;23.25;18.65;;;;;;;5.57;44.89;99876.38;1789426;79;21026;-61
2021/12/30 04:20:58;;;;;;;21.37;17.07;;;;;;;5.57;44.90;99878.53;1780697;80;21222;-62
2021/12/30 04:23:24;;;;;;;25.43;17.70;;;;;;;5.57;44.90;99884.29;1785072;80;21014;-60
2021/12/30 04:25:50;;;;;;;21.73;17.55;;;;;;;5.56;44.89;99889.20;1759447;80;22131;-62
2021/12/30 04:28:17;;;;;;;21.82;17.12;;;;;;;5.57;44.90;99885.61;1762389;80;21097;-62
2021/12/30 04:30:44;;;;;;;24.40;18.37;;;;;;;5.57;44.90;99894.83;1777798;79;21032;-61
2021/12/30 04:33:10;;;;;;;24.45;17.57;;;;;;;5.57;44.89;99896.98;1777196;79;23308;-61
2021/12/30 04:35:36;;;;;;;24.60;18.95;;;;;;;5.57;44.88;99906.20;1810678;78;21078;-61
2021/12/30 04:38:03;;;;;;;24.27;17.67;;;;;;;5.57;44.91;99906.20;1796347;79;21493;-61
2021/12/30 04:40:30;;;;;;;22.87;17.82;;;;;;;5.58;44.88;99911.84;1809265;79;21026;-61
2021/12/30 04:42:56;;;;;;;22.87;17.90;;;;;;;5.59;44.88;99911.34;1803327;78;21082;-61
2021/12/30 04:45:25;;;;;;;23.50;17.62;;;;;;;5.58;44.89;99911.84;1811345;79;21604;-61
2021/12/30 04:47:51;;;;;;;25.08;17.23;;;;;;;5.59;44.88;99913.48;1792659;79;21564;-61
2021/12/30 04:50:18;;;;;;;23.60;18.73;;;;;;;5.59;44.90;99912.66;1792458;79;21494;-61
2021/12/30 04:52:44;;;;;;;23.80;17.77;;;;;;;5.58;44.89;99915.80;1811138;79;21025;-61
2021/12/30 04:55:12;;;;;;;26.65;18.67;;;;;;;5.59;44.88;99920.57;1788508;79;20999;-61
2021/12/30 04:57:39;;;;;;;22.98;17.23;;;;;;;5.59;44.90;99925.35;1797380;79;21139;-60
2021/12/30 05:00:08;;;;;;;26.23;18.52;;;;;;;5.59;44.92;99926.67;1749402;81;21072;-61
2021/12/30 05:02:58;;;;;;;27.62;19.07;;;;;;;5.59;44.90;99931.94;1777895;80;21039;-61
2021/12/30 05:05:05;;;;;;;22.37;16.48;;;;;;;5.59;44.89;99933.75;1814747;78;21011;-61
2021/12/30 05:07:32;;;;;;;24.30;18.37;;;;;;;5.58;44.89;99931.61;1798376;78;21029;-61
2021/12/30 05:09:58;;;;;;;25.65;18.87;;;;;;;5.58;44.91;99932.92;1779507;80;21442;-60
2021/12/30 05:12:25;;;;;;;22.93;18.35;;;;;;;5.59;44.91;99933.75;1791770;79;21080;-62
2021/12/30 05:14:51;;;;;;;25.10;18.75;;;;;;;5.59;44.93;99935.06;1803077;78;21011;-61
2021/12/30 05:17:18;;;;;;;25.77;19.27;;;;;;;5.58;44.93;99932.92;1795245;79;21058;-59
2021/12/30 05:19:45;;;;;;;27.42;20.17;;;;;;;5.57;44.92;99933.88;1795289;79;21045;-60
2021/12/30 05:22:12;;;;;;;25.17;18.62;;;;;;;5.58;44.94;99935.56;1799601;79;21482;-61
2021/12/30 05:24:40;;;;;;;28.70;20.35;;;;;;;5.58;44.93;99936.02;1809236;78;21021;-62
2021/12/30 05:27:06;;;;;;;25.10;18.80;;;;;;;5.57;44.95;99932.55;1812957;77;21454;-62
2021/12/30 05:29:32;;;;;;;26.07;19.20;;;;;;;5.58;44.93;99937.33;1863549;76;21018;-62
2021/12/30 05:31:59;;;;;;;24.77;18.80;;;;;;;5.58;44.93;99936.88;1871273;76;21523;-61
2021/12/30 05:34:26;;;;;;;28.38;20.35;;;;;;;5.58;44.96;99933.38;1837646;76;21178;-62
2021/12/30 05:36:52;;;;;;;26.52;19.92;;;;;;;5.58;44.95;99929.42;1814481;77;21070;-61
2021/12/30 05:39:19;;;;;;;27.17;20.15;;;;;;;5.58;44.95;99934.24;1828340;76;21029;-61
2021/12/30 05:41:45;;;;;;;24.02;18.27;;;;;;;5.58;44.94;99931.61;1814507;79;21006;-62
2021/12/30 05:44:12;;;;;;;24.92;19.35;;;;;;;5.57;44.95;99935.19;1842004;77;21010;-62
2021/12/30 05:46:39;;;;;;;23.95;18.85;;;;;;;5.58;44.96;99942.61;1847679;77;22014;-61
2021/12/30 05:49:05;;;;;;;23.18;18.07;;;;;;;5.58;44.96;99947.41;1778633;79;21096;-61
2021/12/30 05:51:31;;;;;;;26.05;19.70;;;;;;;5.58;44.97;99945.24;1763903;80;21552;-59
2021/12/30 05:53:59;;;;;;;23.12;18.25;;;;;;;5.58;44.96;99951.38;1772764;79;21048;-60
2021/12/30 05:56:25;;;;;;;25.15;17.95;;;;;;;5.58;44.96;99956.64;1785876;79;21053;-62
2021/12/30 05:58:51;;;;;;;25.35;18.55;;;;;;;5.59;44.95;99960.93;1787700;79;23326;-60
2021/12/30 06:01:18;;;;;;;25.27;18.42;;;;;;;5.58;44.95;99954.01;1790632;80;21057;-62
2021/12/30 06:03:44;;;;;;;23.57;17.05;;;;;;;5.59;44.96;99956.15;1785747;80;21635;-61
2021/12/30 06:06:11;;;;;;;23.15;18.75;;;;;;;5.58;44.97;99955.33;1769391;79;21089;-62
2021/12/30 06:08:38;;;;;;;24.47;18.92;;;;;;;5.60;44.96;99965.71;1790482;79;21051;-61
2021/12/30 06:11:05;;;;;;;25.77;20.05;;;;;;;5.58;44.97;99973.77;1777237;80;21144;-62
2021/12/30 06:13:31;;;;;;;28.75;20.25;;;;;;;5.59;44.98;99977.23;1771760;80;21042;-63
2021/12/30 06:15:58;;;;;;;24.37;19.60;;;;;;;5.59;44.97;99982.02;1779242;80;21055;-63
2021/12/30 06:18:25;;;;;;;26.87;20.53;;;;;;;5.58;44.96;99985.63;1779391;79;21023;-60
2021/12/30 06:20:51;;;;;;;25.85;19.17;;;;;;;5.59;44.97;99990.41;1770208;80;21544;-62
2021/12/30 06:23:17;;;;;;;25.57;19.65;;;;;;;5.59;44.98;99994.37;1835571;77;21134;-62
2021/12/30 06:25:45;;;;;;;25.75;18.37;;;;;;;5.59;44.97;100000.95;1847597;77;21497;-61
2021/12/30 06:28:11;;;;;;;24.00;17.87;;;;;;;5.59;45.00;100000.46;1830141;77;21052;-63
2021/12/30 06:30:38;;;;;;;25.00;18.95;;;;;;;5.59;44.99;100007.55;1815275;77;21406;-63
2021/12/30 06:33:05;;;;;;;26.68;20.20;;;;;;;5.60;44.97;100007.42;1832090;77;21029;-61
2021/12/30 06:35:34;;;;;;;24.72;18.45;;;;;;;5.60;44.97;100003.47;1824337;77;21181;-62
2021/12/30 06:38:02;;;;;;;26.10;19.45;;;;;;;5.60;44.98;100005.25;1833406;77;21040;-59
2021/12/30 06:40:29;;;;;;;25.32;20.12;;;;;;;5.60;44.97;100009.20;1806511;77;21006;-62
2021/12/30 06:42:56;;;;;;;25.40;19.62;;;;;;;5.60;44.98;100010.52;1817945;77;21057;-62
2021/12/30 06:45:22;;;;;;;28.80;19.37;;;;;;;5.60;45.01;100010.52;1819593;77;21065;-60
2021/12/30 06:47:49;;;;;;;28.90;21.35;;;;;;;5.60;45.00;100011.38;1821455;77;21516;-62
2021/12/30 06:50:16;;;;;;;27.77;19.92;;;;;;;5.60;45.00;100006.10;1836619;77;20986;-62
2021/12/30 06:52:46;;;;;;;27.32;19.90;;;;;;;5.60;45.00;100003.47;1830557;77;21049;-60
2021/12/30 06:55:12;;;;;;;28.85;20.57;;;;;;;5.61;44.99;100005.61;1840188;77;21559;-61
2021/12/30 06:57:40;;;;;;;28.40;19.42;;;;;;;5.61;45.00;100002.97;1830250;77;20982;-62
2021/12/30 07:00:08;;;;;;;29.65;21.07;;;;;;;5.61;45.00;100004.30;1837724;77;21755;-62
2021/12/30 07:02:36;;;;;;;29.60;20.72;;;;;;;5.61;45.02;100002.97;1823657;77;20975;-62
2021/12/30 07:05:03;;;;;;;27.15;20.40;;;;;;;5.62;45.03;100008.58;1816772;77;21026;-61
2021/12/30 07:07:30;;;;;;;28.38;20.37;;;;;;;5.62;45.02;99998.04;1809516;77;20991;-61
2021/12/30 07:09:56;;;;;;;28.05;20.27;;;;;;;5.63;45.02;100008.95;1773710;79;21054;-62
2021/12/30 07:12:22;;;;;;;30.60;21.45;;;;;;;5.63;45.05;100007.14;1768240;81;21063;-61
2021/12/30 07:14:49;;;;;;;27.22;20.40;;;;;;;5.64;45.02;100011.92;1815408;77;21002;-61
2021/12/30 07:17:16;;;;;;;27.90;20.77;;;;;;;5.64;45.01;100011.47;1809769;77;21030;-62
2021/12/30 07:19:42;;;;;;;27.10;19.05;;;;;;;5.63;45.01;100017.69;1807698;79;21077;-62
2021/12/30 07:22:14;;;;;;;29.02;20.50;;;;;;;5.65;45.02;100015.75;1811324;77;20994;-61
2021/12/30 07:24:39;;;;;;;29.95;21.27;;;;;;;5.65;45.02;100016.24;1810187;79;21468;-61
2021/12/30 07:27:06;;;;;;;31.02;21.82;;;;;;;5.65;45.01;100006.53;1811002;79;21018;-63
2021/12/30 07:29:32;;;;;;;26.40;19.80;;;;;;;5.66;45.00;100009.53;1831272;77;21012;-62
2021/12/30 07:31:59;;;;;;;29.05;20.77;;;;;;;5.67;45.01;100016.95;1851859;77;21052;-62
2021/12/30 07:34:25;;;;;;;29.90;20.23;;;;;;;5.67;45.04;100012.50;1856890;77;21493;-63
2021/12/30 07:36:51;;;;;;;28.02;20.25;;;;;;;5.67;45.04;100010.36;1856945;77;21130;-63
2021/12/30 07:39:18;;;;;;;30.52;20.95;;;;;;;5.67;45.03;100012.50;1848129;77;21474;-60
2021/12/30 07:43:40;;;;;;;31.73;21.50;;;;;;;5.73;45.03;100009.83;1797399;79;26474;-61
2021/12/30 07:46:09;;;;;;;26.90;20.50;;;;;;;5.69;45.02;100009.74;1756992;81;21042;-60
2021/12/30 07:48:37;;;;;;;29.10;20.68;;;;;;;5.70;45.00;100010.11;1756625;81;20990;-61
2021/12/30 07:51:03;;;;;;;26.87;21.02;;;;;;;5.71;44.99;100013.91;1756987;81;21089;-61
2021/12/30 07:53:30;;;;;;;27.20;19.90;;;;;;;5.72;45.02;100018.72;1737072;81;21478;-60
2021/12/30 07:55:56;;;;;;;28.85;21.20;;;;;;;5.71;45.01;100023.63;1710713;83;21088;-60
2021/12/30 07:58:23;;;;;;;28.38;21.07;;;;;;;5.73;45.03;100019.55;1710494;83;21561;-62
2021/12/30 08:00:49;;;;;;;28.15;20.95;;;;;;;5.71;45.00;100022.31;1701409;84;21145;-61
2021/12/30 08:03:16;;;;;;;29.20;20.15;;;;;;;5.73;45.02;100034.05;1682338;84;21694;-61
2021/12/30 08:05:45;;;;;;;28.95;19.95;;;;;;;5.73;45.02;100038.83;1709996;83;20995;-60
2021/12/30 08:08:12;;;;;;;27.62;21.07;;;;;;;5.74;45.02;100047.56;1710235;84;21074;-63
2021/12/30 08:10:38;;;;;;;30.35;21.07;;;;;;;5.74;45.03;100051.06;1721287;83;21038;-61
2021/12/30 08:13:05;;;;;;;28.23;21.37;;;;;;;5.74;45.03;100048.88;1720083;83;21814;-63
2021/12/30 08:15:31;;;;;;;31.02;21.15;;;;;;;5.74;45.05;100047.11;1717131;83;21042;-63
2021/12/30 08:17:59;;;;;;;30.60;22.30;;;;;;;5.75;45.02;100041.34;1720646;83;21535;-62
2021/12/30 08:20:27;;;;;;;28.52;20.72;;;;;;;5.75;45.03;100036.07;1720493;83;21474;-61
2021/12/30 08:22:54;;;;;;;29.82;20.95;;;;;;;5.76;45.04;100041.71;1716683;83;21085;-61
2021/12/30 08:25:21;;;;;;;29.65;22.15;;;;;;;5.75;45.03;100041.34;1720896;83;21193;-64
2021/12/30 08:27:47;;;;;;;29.07;21.95;;;;;;;5.75;45.02;100040.02;1721095;83;21053;-62
2021/12/30 08:30:17;;;;;;;26.75;20.23;;;;;;;5.75;45.03;100037.39;1715742;83;21097;-62
2021/12/30 08:32:43;;;;;;;31.15;22.55;;;;;;;5.75;45.05;100034.75;1721024;83;21054;-62
2021/12/30 08:35:12;;;;;;;28.23;20.68;;;;;;;5.75;45.05;100031.62;1721176;83;21023;-62
2021/12/30 08:37:40;;;;;;;26.97;20.55;;;;;;;5.75;45.07;100027.67;1721035;83;21143;-61
2021/12/30 08:40:09;;;;;;;29.95;21.10;;;;;;;5.75;45.06;100019.77;1720922;83;21123;-63
2021/12/30 08:42:35;;;;;;;28.73;20.35;;;;;;;5.76;45.07;100016.17;1717762;83;21069;-61
2021/12/30 08:45:03;;;;;;;30.65;22.07;;;;;;;5.77;45.06;100023.59;1704347;83;21106;-62
2021/12/30 08:47:33;;;;;;;31.65;22.20;;;;;;;5.76;45.05;100019.30;1712557;83;21067;-61
2021/12/30 08:49:59;;;;;;;31.02;22.00;;;;;;;5.77;45.07;100031.50;1713218;83;21142;-62
2021/12/30 08:52:27;;;;;;;28.32;20.45;;;;;;;5.76;45.07;100034.63;1713516;83;21042;-61
2021/12/30 08:54:54;;;;;;;30.88;21.75;;;;;;;5.76;45.08;100035.95;1708720;83;21054;-60
2021/12/30 08:57:21;;;;;;;28.32;19.85;;;;;;;5.76;45.08;100039.91;1712721;83;21109;-61
2021/12/30 08:59:49;;;;;;;29.50;21.00;;;;;;;5.76;45.09;100036.44;1713026;83;21085;-60
2021/12/30 09:02:15;;;;;;;29.15;20.43;;;;;;;5.76;45.12;100042.54;1713004;83;21557;-61
2021/12/30 09:04:45;;;;;;;27.90;19.80;;;;;;;5.77;45.11;100042.05;1713051;83;21061;-62
2021/12/30 09:07:13;;;;;;;30.23;21.30;;;;;;;5.78;45.11;100030.55;1712505;83;21069;-60
2021/12/30 09:09:41;;;;;;;28.10;19.62;;;;;;;5.78;45.09;100027.91;1703862;83;21039;-60
2021/12/30 09:12:08;;;;;;;29.85;20.72;;;;;;;5.77;45.13;100034.14;1684385;83;21073;-61
2021/12/30 09:14:35;;;;;;;27.52;20.27;;;;;;;5.78;45.13;100036.65;1684184;83;21228;-61
2021/12/30 09:17:01;;;;;;;31.50;22.10;;;;;;;5.79;45.11;100029.57;1684433;83;21054;-63
2021/12/30 09:19:28;;;;;;;29.42;20.85;;;;;;;5.79;45.12;100029.57;1692319;83;21077;-62
2021/12/30 09:21:56;;;;;;;30.27;20.88;;;;;;;5.80;45.09;100036.53;1691239;83;22070;-62
2021/12/30 09:24:23;;;;;;;28.52;19.73;;;;;;;5.81;45.10;100028.95;1684277;83;21061;-61
2021/12/30 09:26:49;;;;;;;28.32;20.12;;;;;;;5.81;45.11;100028.95;1688589;83;21111;-61
2021/12/30 09:29:16;;;;;;;29.15;21.17;;;;;;;5.82;45.10;100037.23;1688104;83;21078;-62
2021/12/30 09:31:46;;;;;;;28.83;20.65;;;;;;;5.83;45.10;100036.25;1684420;85;21561;-62
2021/12/30 09:34:13;;;;;;;27.60;19.05;;;;;;;5.84;45.08;100028.70;1684101;85;21057;-63
2021/12/30 09:36:40;;;;;;;27.52;19.35;;;;;;;5.85;45.07;100022.45;1685356;83;21083;-62
2021/12/30 09:39:10;;;;;;;29.10;19.67;;;;;;;5.84;45.08;100021.62;1684631;83;21040;-61
2021/12/30 09:41:40;;;;;;;24.30;18.85;;;;;;;5.85;45.07;100022.45;1695120;83;21199;-62
2021/12/30 09:44:07;;;;;;;24.55;18.90;;;;;;;5.86;45.06;100025.45;1694243;83;21061;-62
2021/12/30 09:46:38;;;;;;;24.75;19.02;;;;;;;5.86;45.07;100021.50;1694120;84;21569;-62
2021/12/30 09:49:06;;;;;;;27.00;19.57;;;;;;;5.87;45.05;100013.92;1694559;84;21455;-61
2021/12/30 09:51:33;;;;;;;27.90;18.55;;;;;;;5.87;45.04;100016.10;1694983;84;21818;-63
2021/12/30 09:54:01;;;;;;;27.27;18.92;;;;;;;5.87;45.06;100006.02;1690868;84;21039;-62
2021/12/30 09:56:28;;;;;;;24.55;18.57;;;;;;;5.88;45.05;100005.89;1678987;85;21062;-61
2021/12/30 09:58:55;;;;;;;26.27;18.42;;;;;;;5.89;45.05;100005.40;1679032;85;21518;-63
2021/12/30 10:01:21;;;;;;;24.70;18.40;;;;;;;5.89;45.05;99998.34;1692225;84;21066;-62
2021/12/30 10:03:48;;;;;;;23.22;17.32;;;;;;;5.90;45.03;100001.31;1707397;84;21518;-62
2021/12/30 10:06:16;;;;;;;24.63;17.67;;;;;;;5.91;45.03;100005.64;1707371;84;21106;-62
2021/12/30 10:08:55;;;;;;;24.57;18.52;;;;;;;5.92;45.02;100007.78;1707385;84;21035;-63
2021/12/30 10:11:22;;;;;;;24.27;16.85;;;;;;;5.94;45.02;99999.75;1706930;84;21554;-61
2021/12/30 10:13:59;;;;;;;24.25;17.90;;;;;;;5.93;45.01;99996.75;1707552;83;21078;-61
2021/12/30 10:16:26;;;;;;;23.77;17.07;;;;;;;5.93;45.00;100002.87;1707479;84;21239;-61
2021/12/30 10:18:56;;;;;;;23.98;17.55;;;;;;;5.93;45.01;99998.92;1707538;84;21097;-63
2021/12/30 10:21:29;;;;;;;24.43;17.20;;;;;;;5.94;45.02;99997.11;1707757;84;21609;-64
2021/12/30 10:23:59;;;;;;;22.93;16.57;;;;;;;5.94;45.02;99990.52;1707664;83;21011;-61
2021/12/30 10:26:26;;;;;;;24.00;18.20;;;;;;;5.95;45.03;99984.27;1703161;84;21103;-62
2021/12/30 10:28:58;;;;;;;22.77;16.80;;;;;;;5.95;45.01;99978.98;1688654;83;22377;-63
2021/12/30 10:31:29;;;;;;;22.50;17.30;;;;;;;5.95;45.02;99980.30;1678792;85;21062;-61
2021/12/30 10:34:01;;;;;;;25.80;17.27;;;;;;;5.95;45.02;99977.23;1679263;85;21565;-63
2021/12/30 10:36:40;;;;;;;25.12;17.55;;;;;;;5.96;45.00;99980.21;1679132;85;21038;-61
2021/12/30 10:39:31;;;;;;;24.82;17.57;;;;;;;5.97;45.02;99982.36;1679037;85;21039;-62
2021/12/30 10:42:20;;;;;;;22.85;16.60;;;;;;;5.97;45.02;99981.03;1679239;85;21817;-63
2021/12/30 10:44:54;;;;;;;20.85;16.12;;;;;;;5.97;45.01;99985.85;1679676;84;21566;-61
2021/12/30 10:47:29;;;;;;;22.42;16.90;;;;;;;5.98;45.02;99982.23;1679116;85;21708;-63
2021/12/30 10:50:06;;;;;;;22.42;16.25;;;;;;;5.98;45.02;99969.05;1679176;85;21026;-62
2021/12/30 10:52:35;;;;;;;23.20;16.60;;;;;;;5.96;45.05;99967.02;1679014;85;21026;-61
2021/12/30 10:55:11;;;;;;;20.92;15.75;;;;;;;5.97;45.04;99964.75;1651831;85;21824;-62
2021/12/30 10:57:37;;;;;;;21.50;16.15;;;;;;;5.97;45.05;99960.80;1679021;85;21584;-61
2021/12/30 11:00:08;;;;;;;21.23;15.32;;;;;;;5.98;45.02;99955.86;1679002;85;21058;-61
2021/12/30 11:02:34;;;;;;;21.40;16.32;;;;;;;5.97;45.04;99947.61;1705474;83;20982;-62
2021/12/30 11:05:09;;;;;;;21.57;15.45;;;;;;;5.99;45.03;99943.50;1698793;84;21394;-61
2021/12/30 11:07:42;;;;;;;20.27;15.23;;;;;;;5.99;45.01;99933.80;1703033;84;21034;-61
2021/12/30 11:10:10;;;;;;;20.10;14.70;;;;;;;6.00;45.03;99938.09;1700434;84;21042;-61
2021/12/30 11:12:42;;;;;;;23.40;16.57;;;;;;;6.01;45.00;99940.27;1707131;84;21700;-65
2021/12/30 11:15:25;;;;;;;19.17;15.00;;;;;;;6.01;45.00;99937.64;1707397;84;21098;-61
2021/12/30 11:18:14;;;;;;;21.80;14.98;;;;;;;6.02;44.99;99941.92;1710075;83;21094;-62
2021/12/30 11:20:46;;;;;;;20.40;15.53;;;;;;;6.01;45.02;99938.95;1704016;84;21601;-62
2021/12/30 11:23:15;;;;;;;20.40;15.20;;;;;;;6.02;45.01;99937.48;1693854;84;21026;-61
2021/12/30 11:25:43;;;;;;;21.75;16.23;;;;;;;6.02;44.98;99940.11;1707512;84;21039;-62
2021/12/30 11:28:10;;;;;;;18.67;14.10;;;;;;;6.03;45.01;99941.80;1684346;84;21608;-64